Aérodrome :
LOGIN :

S'inscrire | Disclaimer

   EN    FR    IT 

 










Légende :    VFR   VFR Marginal   IFR   IFR Intensif   IFR Très Intensif
Visi : 
Plafond : 
>= 8 km
>= 3000ft
5 à 8 km
1000 à 3000 ft
1500m à 5 km
500 à 1000 ft
800 à 1500m
200 à 500 ft
< 800m
< 200 ft
Symboles :   Orages  Brouillard  Fortes neiges  Fortes précipitations  Vent > 20 kt
SIGMETs :   Divers  Orages  Givrage  Turbulence  Onde Orograph.  Cendres Volcan.







- Altitude de l'aérodrome : 68 ft
- Code IATA : AGH


ESTA - Ängelholm-Helsingborg

DERNIER METAR :
  • 191750Z 07011KT CAVOK 03/00 Q1031

METARs EXPIRÉS :
  • 191720Z 07011KT 9999 NSC 03/01 Q1031
  • 191650Z 07014KT 9999 FEW030 04/01 Q1031
  • 191620Z 08011KT 9999 SCT028 04/00 Q1031
  • 191550Z 07010KT 9999 SCT029 04/01 Q1031
  • 191520Z 07012KT 9999 BKN030 04/01 Q1031

TAF TAF ESTA
Valide du 19 à 18h jusqu'au 19 à 23h UTC


191703Z 1918/1923 07014KT 9999 BKN020
Pas de NOTAMs connus pour ce terrain.
1 SIGMET publié pour la FIR Sweden (ESAA) :
 
Onde orographique forte
ESAA SIGMET 1 VALID 191810/192210 ESSA
ESAA SWEDEN FIR SEV MTW FCST WI N6836 E02222 - N6716 E01832 - N6758 E01551 - N6915 E02023 - N6836 E02222 SFC/FL150 STNR INTSF=



MET'MAP, la Météo Aéronautique d'un coup d'oeil ! - Copyright ORBIFLY Décembre 2007 - Disclaimer

ORBIFLY MET'MAP TEAM :

Programmation & Développement : Alexandra Zaïnal
Conception & Développement : Baudouin d'Aumeries
Co-Programmation & Développement : Marc-Olivier Méhu
Soutien technique & logistique : Manuel Goepfert

Contact : metmap@orbifly.com




SOURCES & CREDITS :

   NOAA